Time;durP1;ratioP1;P1;durP2;ratioP2;P2;SDS_P1;SDS_P2;PMS_P1;PMS_P2;Temp;Humidity;BMP_temperature;BMP_pressure;BME280_temperature;BME280_humidity;BME280_pressure;Samples;Min_cycle;Max_cycle;Signal;HPM_P1;HPM_P2
2022/06/23 00:00:16;;;;;;;26.67;16.35;;;20.20;99.90;;;;;;5074490;28;20024;-55
2022/06/23 00:02:43;;;;;;;24.48;17.45;;;20.20;99.90;;;;;;5074079;28;20393;-55
2022/06/23 00:05:16;;;;;;;22.63;17.17;;;20.20;99.90;;;;;;5073080;28;20032;-55
2022/06/23 00:07:49;;;;;;;25.20;17.95;;;20.10;99.90;;;;;;5074429;28;20028;-55
2022/06/23 00:10:15;;;;;;;35.35;20.20;;;20.10;99.90;;;;;;5074388;28;20031;-55
2022/06/23 00:12:43;;;;;;;29.13;18.40;;;20.10;99.90;;;;;;5074148;28;20115;-55
2022/06/23 00:15:09;;;;;;;30.38;17.73;;;20.10;99.90;;;;;;5074486;28;20037;-55
2022/06/23 00:17:42;;;;;;;24.52;16.88;;;20.20;99.90;;;;;;5073981;28;20052;-55
2022/06/23 00:20:26;;;;;;;27.50;18.63;;;20.10;99.90;;;;;;5074593;28;20035;-55
2022/06/23 00:22:55;;;;;;;27.38;18.52;;;20.00;99.90;;;;;;5074251;28;20047;-55
2022/06/23 00:25:29;;;;;;;23.90;17.58;;;20.00;99.90;;;;;;5076701;28;20031;-55
2022/06/23 00:27:56;;;;;;;25.70;17.15;;;20.00;99.90;;;;;;5078225;28;20095;-55
2022/06/23 00:30:28;;;;;;;25.10;18.30;;;19.90;99.90;;;;;;5077107;28;20079;-55
2022/06/23 00:32:54;;;;;;;28.10;19.50;;;19.90;99.90;;;;;;5078127;28;20531;-55
2022/06/23 00:35:20;;;;;;;26.20;18.92;;;19.90;99.90;;;;;;5078435;28;20021;-55
2022/06/23 00:37:49;;;;;;;23.67;17.95;;;19.90;99.90;;;;;;5078025;28;20028;-55
2022/06/23 00:40:20;;;;;;;31.30;19.75;;;20.00;99.90;;;;;;5078067;28;20020;-55
2022/06/23 00:42:54;;;;;;;27.13;20.38;;;20.00;99.90;;;;;;5078150;28;20497;-55
2022/06/23 00:45:43;;;;;;;31.75;19.33;;;20.00;99.90;;;;;;5078021;28;20056;-55
2022/06/23 00:48:24;;;;;;;28.98;18.73;;;20.00;99.90;;;;;;5077979;28;20032;-55
2022/06/23 00:51:17;;;;;;;33.53;20.65;;;20.00;99.90;;;;;;5077932;28;20025;-55
2022/06/23 00:54:11;;;;;;;33.58;21.35;;;20.10;99.90;;;;;;5064155;28;20049;-55
2022/06/23 00:56:42;;;;;;;34.40;22.70;;;20.10;99.90;;;;;;5077885;28;20029;-55
2022/06/23 00:59:23;;;;;;;38.13;24.05;;;20.10;99.90;;;;;;5077760;28;20029;-55
2022/06/23 01:01:57;;;;;;;36.30;22.63;;;20.20;99.90;;;;;;5077707;28;20035;-55
2022/06/23 01:04:40;;;;;;;36.10;23.08;;;20.20;99.90;;;;;;5077607;28;20121;-55
2022/06/23 01:07:15;;;;;;;31.23;21.17;;;20.20;99.90;;;;;;5077444;28;20028;-55
2022/06/23 01:09:50;;;;;;;30.63;20.98;;;20.30;99.90;;;;;;5077510;28;20082;-55
2022/06/23 01:12:37;;;;;;;30.35;20.30;;;20.20;99.90;;;;;;5077513;28;20063;-55
2022/06/23 01:15:20;;;;;;;28.08;20.15;;;20.30;99.90;;;;;;5077221;28;20398;-55
2022/06/23 01:17:59;;;;;;;29.58;20.35;;;20.40;99.90;;;;;;5077520;28;20032;-55
2022/06/23 01:20:28;;;;;;;23.88;19.40;;;20.40;99.90;;;;;;5077397;28;20056;-55
2022/06/23 01:23:10;;;;;;;25.13;18.83;;;20.40;99.90;;;;;;5077270;28;20028;-55
2022/06/23 01:26:20;;;;;;;26.42;18.65;;;20.40;99.90;;;;;;5077212;28;20394;-55
2022/06/23 01:28:47;;;;;;;23.27;19.08;;;20.50;99.90;;;;;;5077032;28;20406;-55
2022/06/23 01:31:19;;;;;;;25.98;19.25;;;20.50;99.90;;;;;;5077360;28;20033;-55
2022/06/23 01:33:48;;;;;;;28.58;19.63;;;20.50;99.90;;;;;;5077001;28;20474;-55
2022/06/23 01:36:43;;;;;;;25.27;19.48;;;20.50;99.90;;;;;;5075577;28;20047;-55
2022/06/23 01:39:24;;;;;;;27.17;18.92;;;20.50;99.90;;;;;;5067960;28;20033;-55
2022/06/23 01:42:29;;;;;;;28.85;20.52;;;20.50;99.90;;;;;;5077100;28;20108;-55
2022/06/23 01:45:04;;;;;;;26.85;19.88;;;20.50;99.90;;;;;;5076855;28;20086;-55
2022/06/23 01:47:40;;;;;;;26.02;19.95;;;20.50;99.90;;;;;;5077071;28;20021;-55
2022/06/23 01:50:14;;;;;;;25.15;19.83;;;20.50;99.90;;;;;;5076745;28;20052;-55
2022/06/23 01:52:46;;;;;;;27.80;19.77;;;20.50;99.90;;;;;;5076435;28;20054;-55
2022/06/23 01:55:23;;;;;;;27.30;19.33;;;20.40;99.90;;;;;;5076732;28;20100;-55
2022/06/23 01:58:05;;;;;;;28.58;20.20;;;20.40;99.90;;;;;;5076708;28;20028;-55
2022/06/23 02:00:34;;;;;;;25.33;20.02;;;20.50;99.90;;;;;;5076826;28;20025;-55
2022/06/23 02:03:32;;;;;;;26.90;19.13;;;20.40;99.90;;;;;;5076685;28;20041;-55
2022/06/23 02:06:18;;;;;;;27.60;18.88;;;20.40;99.90;;;;;;5076557;28;20037;-55
2022/06/23 02:08:51;;;;;;;22.73;19.13;;;20.50;99.90;;;;;;5076605;28;20030;-55
2022/06/23 02:11:45;;;;;;;26.85;18.48;;;20.50;99.90;;;;;;5076750;28;20094;-55
2022/06/23 02:14:43;;;;;;;27.52;18.58;;;20.40;99.90;;;;;;5076232;28;20171;-55
2022/06/23 02:17:27;;;;;;;32.78;19.45;;;20.40;99.90;;;;;;5076223;28;20140;-55
2022/06/23 02:19:56;;;;;;;26.02;19.27;;;20.30;99.90;;;;;;5076174;28;20028;-55
2022/06/23 02:22:34;;;;;;;24.95;19.50;;;20.40;99.90;;;;;;5076415;28;20064;-55
2022/06/23 02:25:03;;;;;;;23.83;17.77;;;20.40;99.90;;;;;;5076440;28;20033;-55
2022/06/23 02:27:42;;;;;;;24.58;18.23;;;20.40;99.90;;;;;;5076231;28;20028;-55
2022/06/23 02:30:30;;;;;;;22.38;17.50;;;20.30;99.90;;;;;;5076018;28;20066;-55
2022/06/23 02:33:05;;;;;;;27.20;19.63;;;20.40;99.90;;;;;;5075692;28;20020;-55
2022/06/23 02:35:56;;;;;;;24.85;18.67;;;20.50;99.90;;;;;;5076029;28;20028;-55
2022/06/23 02:38:26;;;;;;;32.28;19.70;;;20.50;99.90;;;;;;5076094;28;20517;-55
2022/06/23 02:41:01;;;;;;;37.58;20.20;;;20.50;99.90;;;;;;5075592;28;20374;-55
2022/06/23 02:43:31;;;;;;;31.23;20.35;;;20.50;99.90;;;;;;5075767;28;20100;-55
2022/06/23 02:46:16;;;;;;;30.35;20.65;;;20.40;99.90;;;;;;5075927;28;20037;-55
2022/06/23 02:49:01;;;;;;;49.33;23.73;;;20.50;99.90;;;;;;5075522;28;20024;-55
2022/06/23 02:52:05;;;;;;;45.22;23.83;;;20.40;99.90;;;;;;5075672;28;20071;-55
2022/06/23 02:54:50;;;;;;;54.42;24.27;;;20.30;99.90;;;;;;5075669;28;20474;-55
2022/06/23 02:57:44;;;;;;;45.97;23.95;;;20.30;99.90;;;;;;5075836;28;20067;-55
2022/06/23 03:00:40;;;;;;;48.70;25.67;;;20.40;99.90;;;;;;5075260;28;20482;-55
2022/06/23 03:03:20;;;;;;;42.38;27.88;;;20.30;99.90;;;;;;5075405;28;20055;-55
2022/06/23 03:05:56;;;;;;;48.45;27.40;;;20.30;99.90;;;;;;5075476;28;20056;-55
2022/06/23 03:08:37;;;;;;;55.97;28.67;;;20.30;99.90;;;;;;5075153;28;20103;-55
2022/06/23 03:11:07;;;;;;;58.10;29.17;;;20.30;99.90;;;;;;5075309;28;20017;-55
2022/06/23 03:13:53;;;;;;;49.97;26.08;;;20.30;99.90;;;;;;5075173;28;20478;-55
2022/06/23 03:16:30;;;;;;;47.30;26.73;;;20.20;99.90;;;;;;5074924;28;20031;-55
2022/06/23 03:19:18;;;;;;;58.40;28.33;;;20.20;99.90;;;;;;5075102;28;20390;-55
2022/06/23 03:22:03;;;;;;;48.33;33.72;;;20.20;99.90;;;;;;5074991;28;20026;-55
2022/06/23 03:24:56;;;;;;;48.67;29.67;;;20.30;99.90;;;;;;5075155;28;20036;-55
2022/06/23 03:27:28;;;;;;;44.03;28.58;;;20.30;99.90;;;;;;5057132;28;20127;-55
2022/06/23 03:30:04;;;;;;;47.67;29.60;;;20.30;99.90;;;;;;5074710;28;20319;-55
2022/06/23 03:32:36;;;;;;;43.88;29.45;;;20.30;99.90;;;;;;5074777;28;20390;-55
2022/06/23 03:35:33;;;;;;;53.80;30.08;;;20.30;99.90;;;;;;5074867;28;20437;-55
2022/06/23 03:38:02;;;;;;;53.05;31.00;;;20.30;99.90;;;;;;5074759;28;20031;-55
2022/06/23 03:43:49;;;;;;;51.50;29.57;;;20.30;99.90;;;;;;5074720;28;20092;-55
2022/06/23 03:46:36;;;;;;;46.70;29.13;;;20.20;99.90;;;;;;5074691;28;20032;-56
2022/06/23 03:49:35;;;;;;;43.80;28.33;;;20.30;99.90;;;;;;5074819;28;20021;-55
2022/06/23 03:52:04;;;;;;;43.05;28.10;;;20.30;99.90;;;;;;5074649;28;20032;-55
2022/06/23 03:54:44;;;;;;;49.22;31.42;;;20.30;99.90;;;;;;5074714;28;20048;-55
2022/06/23 03:57:19;;;;;;;49.15;29.60;;;20.30;99.90;;;;;;5074409;28;20489;-55
2022/06/23 03:59:44;;;;;;;50.58;28.95;;;20.20;99.90;;;;;;5073681;28;20020;-55
2022/06/23 04:02:34;;;;;;;53.97;31.27;;;20.30;99.90;;;;;;5074560;28;20494;-55
2022/06/23 04:05:37;;;;;;;53.65;31.90;;;20.30;99.90;;;;;;5074260;28;20497;-55
2022/06/23 04:08:04;;;;;;;47.63;31.60;;;20.20;99.90;;;;;;4985323;28;20050;-56
2022/06/23 04:10:42;;;;;;;47.00;31.52;;;20.20;99.90;;;;;;5074781;28;20039;-55
2022/06/23 04:13:21;;;;;;;50.17;30.52;;;20.30;99.90;;;;;;5074034;28;20028;-56
2022/06/23 04:15:49;;;;;;;41.72;30.95;;;20.40;99.90;;;;;;5074324;28;20032;-55
2022/06/23 04:18:28;;;;;;;47.30;30.42;;;20.50;99.90;;;;;;5074498;28;20028;-55
2022/06/23 04:21:07;;;;;;;47.35;32.15;;;20.50;99.90;;;;;;5074263;28;20107;-56
2022/06/23 04:23:40;;;;;;;45.03;31.30;;;20.60;99.90;;;;;;5074238;28;20032;-55
2022/06/23 04:26:12;;;;;;;49.42;31.13;;;20.60;99.90;;;;;;5074062;28;20055;-56
2022/06/23 04:28:47;;;;;;;52.40;31.55;;;20.70;99.90;;;;;;5074176;28;20551;-55
2022/06/23 04:31:41;;;;;;;50.95;33.42;;;20.70;99.90;;;;;;5074269;28;20032;-56
2022/06/23 04:34:19;;;;;;;57.28;32.53;;;20.90;99.90;;;;;;5073784;28;20037;-56
2022/06/23 04:36:45;;;;;;;50.25;32.30;;;20.90;99.90;;;;;;5074198;28;20151;-55
2022/06/23 04:39:26;;;;;;;49.10;31.17;;;21.00;99.90;;;;;;5073974;28;20051;-56
2022/06/23 04:42:18;;;;;;;49.15;32.60;;;21.00;99.90;;;;;;5073988;28;20036;-55
2022/06/23 04:44:47;;;;;;;54.58;34.72;;;21.10;99.90;;;;;;5074053;28;20029;-56
2022/06/23 04:47:23;;;;;;;54.55;30.17;;;21.20;99.90;;;;;;5074031;28;20040;-56
2022/06/23 04:49:54;;;;;;;45.03;27.80;;;21.30;99.90;;;;;;5073847;28;20051;-56
2022/06/23 04:52:50;;;;;;;41.17;24.98;;;21.40;99.90;;;;;;5073813;28;20039;-56
2022/06/23 04:55:27;;;;;;;45.83;26.33;;;21.50;99.90;;;;;;5073874;28;20436;-56
2022/06/23 04:58:01;;;;;;;39.67;25.67;;;21.60;99.90;;;;;;5072544;28;20040;-56
2022/06/23 05:00:47;;;;;;;40.30;25.13;;;21.80;99.90;;;;;;5073984;28;20055;-56
2022/06/23 05:03:16;;;;;;;41.67;25.95;;;21.90;99.90;;;;;;5073571;28;20505;-56
2022/06/23 05:05:43;;;;;;;39.78;26.98;;;22.10;99.90;;;;;;5073734;28;20032;-56
2022/06/23 05:08:23;;;;;;;43.08;26.67;;;22.00;99.90;;;;;;5073787;28;20440;-56
2022/06/23 05:11:07;;;;;;;42.47;26.27;;;22.10;99.90;;;;;;5075097;28;20059;-56
2022/06/23 05:14:22;;;;;;;50.42;26.63;;;22.10;99.90;;;;;;5077637;28;20036;-56
2022/06/23 05:16:53;;;;;;;44.78;26.58;;;22.20;99.90;;;;;;5026869;28;20035;-55
2022/06/23 05:19:27;;;;;;;31.90;23.60;;;22.20;99.90;;;;;;5077485;28;20059;-56
2022/06/23 05:21:59;;;;;;;44.65;26.05;;;22.30;99.90;;;;;;5077063;28;20083;-56
2022/06/23 05:24:37;;;;;;;42.42;25.85;;;22.50;99.90;;;;;;5077334;28;20028;-56
2022/06/23 05:27:13;;;;;;;36.05;24.92;;;22.60;99.90;;;;;;5073434;28;20029;-56
2022/06/23 05:29:55;;;;;;;34.33;24.65;;;22.70;99.90;;;;;;5056894;28;20513;-56
2022/06/23 05:32:28;;;;;;;40.70;24.92;;;22.80;99.90;;;;;;5061786;28;20263;-56
2022/06/23 05:35:15;;;;;;;41.05;23.65;;;22.80;99.90;;;;;;5076523;28;20101;-56
2022/06/23 05:37:51;;;;;;;39.55;25.33;;;22.90;99.90;;;;;;5076109;28;20055;-56
2022/06/23 05:40:24;;;;;;;40.67;25.17;;;22.90;99.90;;;;;;5076750;28;20024;-56
2022/06/23 05:42:55;;;;;;;46.38;25.67;;;23.00;99.90;;;;;;5076785;28;20063;-56
2022/06/23 05:45:26;;;;;;;48.05;25.88;;;22.90;99.90;;;;;;5056978;28;20037;-56
2022/06/23 05:47:53;;;;;;;41.25;26.40;;;23.00;99.90;;;;;;5056752;28;20044;-56
2022/06/23 05:50:27;;;;;;;36.95;24.27;;;23.20;99.90;;;;;;5056310;28;20076;-56
2022/06/23 05:52:59;;;;;;;41.72;26.27;;;23.40;99.90;;;;;;5071471;28;20054;-56
2022/06/23 05:56:00;;;;;;;40.10;23.80;;;23.50;99.90;;;;;;5075445;28;20429;-56
2022/06/23 05:58:43;;;;;;;;;;;23.60;99.90;;;;;;5071474;28;20062;-56
2022/06/23 06:01:34;;;;;;;42.65;25.80;;;23.70;99.90;;;;;;5075422;28;19943;-56
2022/06/23 06:04:12;;;;;;;34.97;23.88;;;23.90;99.90;;;;;;5082029;28;20031;-56
2022/06/23 06:06:38;;;;;;;39.85;24.50;;;24.00;99.90;;;;;;5077132;28;20425;-56
2022/06/23 06:11:55;;;;;;;33.88;22.60;;;24.30;99.90;;;;;;5074671;28;20059;-56
2022/06/23 06:14:27;;;;;;;35.03;21.60;;;24.30;99.90;;;;;;5075528;28;20036;-56
2022/06/23 06:16:56;;;;;;;35.70;22.80;;;24.40;99.90;;;;;;5074211;28;20123;-56
2022/06/23 06:19:25;;;;;;;39.93;22.20;;;24.40;99.90;;;;;;5070708;28;20390;-56
2022/06/23 06:21:56;;;;;;;47.72;22.80;;;24.50;99.90;;;;;;5069208;28;20634;-56
2022/06/23 06:24:35;;;;;;;51.00;24.85;;;24.50;99.90;;;;;;5075844;28;20036;-56
2022/06/23 06:27:03;;;;;;;45.22;23.25;;;24.50;99.90;;;;;;5075869;28;20052;-56
2022/06/23 06:29:33;;;;;;;40.53;22.73;;;24.60;99.90;;;;;;5075925;28;20535;-56
2022/06/23 06:32:33;;;;;;;43.97;22.20;;;24.80;99.90;;;;;;5074898;28;20040;-56
2022/06/23 06:35:13;;;;;;;36.88;22.85;;;24.80;99.90;;;;;;5055806;28;20035;-56
2022/06/23 06:37:47;;;;;;;37.63;22.42;;;24.90;99.90;;;;;;5055864;28;20029;-56
2022/06/23 06:40:14;;;;;;;37.42;22.65;;;24.90;99.90;;;;;;5068479;28;20037;-56
2022/06/23 06:42:46;;;;;;;50.33;23.85;;;25.00;99.90;;;;;;5075523;28;20439;-56
2022/06/23 06:45:17;;;;;;;45.45;24.10;;;25.00;99.90;;;;;;5075646;28;20033;-56
2022/06/23 06:47:47;;;;;;;36.67;22.90;;;25.00;99.90;;;;;;5074435;28;20036;-56
2022/06/23 06:50:18;;;;;;;52.80;24.38;;;25.10;99.90;;;;;;5075534;28;20028;-56
2022/06/23 06:52:48;;;;;;;36.85;22.55;;;25.20;99.90;;;;;;5075217;28;20044;-56
2022/06/23 06:55:22;;;;;;;37.38;21.55;;;25.10;99.90;;;;;;5075289;28;20028;-56
2022/06/23 06:58:02;;;;;;;40.00;24.10;;;25.20;99.90;;;;;;5075278;28;20076;-56
2022/06/23 07:00:38;;;;;;;37.38;22.52;;;25.30;99.90;;;;;;5075334;28;20456;-56
2022/06/23 07:03:08;;;;;;;41.55;22.85;;;25.30;99.90;;;;;;5075133;28;20498;-56
2022/06/23 07:05:47;;;;;;;57.60;25.37;;;25.30;99.90;;;;;;5075495;28;20036;-56
2022/06/23 07:08:40;;;;;;;47.70;24.05;;;25.40;99.90;;;;;;5074676;28;20044;-56
2022/06/23 07:11:20;;;;;;;43.78;21.55;;;25.50;99.90;;;;;;5070471;28;20030;-56
2022/06/23 07:14:10;;;;;;;31.55;17.05;;;25.50;99.90;;;;;;5075509;28;20035;-56
2022/06/23 07:16:58;;;;;;;42.67;19.02;;;25.60;99.90;;;;;;5074595;28;20124;-56
2022/06/23 07:19:36;;;;;;;33.42;17.65;;;25.50;99.90;;;;;;5073571;28;20033;-56
2022/06/23 07:22:18;;;;;;;32.83;17.27;;;25.60;99.90;;;;;;5073158;28;20032;-56
2022/06/23 07:24:48;;;;;;;29.77;15.68;;;25.70;99.90;;;;;;5074360;28;20032;-56
2022/06/23 07:27:29;;;;;;;35.50;15.05;;;25.80;99.90;;;;;;5074488;28;20017;-56
2022/06/23 07:30:18;;;;;;;30.92;15.07;;;25.80;99.90;;;;;;5073636;28;20587;-56
2022/06/23 07:32:59;;;;;;;28.02;14.65;;;25.90;99.90;;;;;;5071848;28;20119;-56
2022/06/23 07:35:39;;;;;;;36.58;15.75;;;26.00;99.90;;;;;;5074507;28;20024;-56
2022/06/23 07:38:28;;;;;;;20.25;13.23;;;26.10;99.90;;;;;;5074560;28;20021;-56
2022/06/23 07:41:00;;;;;;;24.95;12.85;;;26.10;99.90;;;;;;5074207;28;20024;-56
2022/06/23 07:43:32;;;;;;;24.55;11.57;;;26.40;99.90;;;;;;5072232;28;20036;-56
2022/06/23 07:46:01;;;;;;;25.73;13.55;;;26.70;99.90;;;;;;5071182;28;20419;-57
2022/06/23 07:48:30;;;;;;;23.90;11.90;;;27.10;99.90;;;;;;5073858;28;20502;-56
2022/06/23 07:50:58;;;;;;;30.92;13.77;;;27.50;99.90;;;;;;5073785;28;20059;-56
2022/06/23 07:53:29;;;;;;;21.05;11.80;;;27.80;99.90;;;;;;5072224;28;20469;-56
2022/06/23 07:55:56;;;;;;;26.05;12.07;;;28.10;99.90;;;;;;5073274;28;20542;-56
2022/06/23 07:58:26;;;;;;;21.92;12.50;;;28.00;99.90;;;;;;5073356;28;20491;-56
2022/06/23 08:01:10;;;;;;;19.23;11.30;;;28.20;99.90;;;;;;5074088;28;20136;-56
2022/06/23 08:03:54;;;;;;;25.77;12.18;;;28.20;99.90;;;;;;5071761;28;20021;-56
2022/06/23 08:06:21;;;;;;;21.02;12.07;;;28.40;99.80;;;;;;5072646;28;20064;-56
2022/06/23 08:08:49;;;;;;;20.10;12.02;;;28.60;98.60;;;;;;5073878;28;20489;-56
2022/06/23 08:14:21;;;;;;;21.88;12.85;;;28.80;96.70;;;;;;5073255;28;20104;-56
2022/06/23 08:16:49;;;;;;;17.38;11.20;;;28.90;95.80;;;;;;5073795;28;20085;-56
2022/06/23 08:19:37;;;;;;;19.08;11.45;;;28.90;95.40;;;;;;5074040;28;20123;-56
2022/06/23 08:22:24;;;;;;;24.17;11.10;;;29.10;93.30;;;;;;5071081;28;20045;-56
2022/06/23 08:24:55;;;;;;;13.05;9.80;;;29.00;91.90;;;;;;5072433;28;20016;-56
2022/06/23 08:27:28;;;;;;;17.17;9.32;;;28.70;93.50;;;;;;5073617;28;20576;-56
2022/06/23 08:30:00;;;;;;;18.88;9.43;;;28.90;96.90;;;;;;5074252;28;20052;-56
2022/06/23 08:32:29;;;;;;;19.17;9.05;;;29.20;94.90;;;;;;5074118;28;20032;-56
2022/06/23 08:35:07;;;;;;;19.35;10.27;;;29.50;92.80;;;;;;5071578;28;20025;-56
2022/06/23 08:37:53;;;;;;;18.08;9.88;;;29.90;91.20;;;;;;5072489;28;20382;-56
2022/06/23 08:40:22;;;;;;;22.45;9.52;;;30.00;88.30;;;;;;5071343;28;20032;-56
2022/06/23 08:42:57;;;;;;;16.10;9.15;;;29.30;85.00;;;;;;5072874;28;20035;-56
2022/06/23 08:45:39;;;;;;;13.48;9.32;;;28.30;94.40;;;;;;5073226;28;20113;-56
2022/06/23 08:48:11;;;;;;;18.60;10.30;;;28.50;92.30;;;;;;5076605;28;20458;-56
2022/06/23 08:50:43;;;;;;;34.15;11.73;;;28.40;95.30;;;;;;5075812;28;20028;-56
2022/06/23 08:53:22;;;;;;;18.85;9.73;;;28.20;97.30;;;;;;5076381;28;20052;-56
2022/06/23 08:55:54;;;;;;;13.63;9.77;;;28.70;93.60;;;;;;5075581;28;20111;-56
2022/06/23 08:58:38;;;;;;;24.63;10.13;;;28.10;92.30;;;;;;5075349;28;20025;-56
2022/06/23 09:01:14;;;;;;;14.70;10.65;;;28.00;94.50;;;;;;5074909;28;20028;-56
2022/06/23 09:03:57;;;;;;;13.75;9.80;;;28.40;93.10;;;;;;5077652;28;20366;-56
2022/06/23 09:06:38;;;;;;;22.02;11.30;;;28.80;92.80;;;;;;5076104;28;20070;-56
2022/06/23 09:09:13;;;;;;;17.98;10.63;;;29.40;91.00;;;;;;5057882;28;20079;-56
2022/06/23 09:12:10;;;;;;;17.25;11.68;;;29.50;81.00;;;;;;5072453;28;20082;-56
2022/06/23 09:14:53;;;;;;;20.38;12.35;;;29.20;90.00;;;;;;5057699;28;20029;-56
2022/06/23 09:17:47;;;;;;;19.75;12.85;;;28.80;86.00;;;;;;5057174;28;20025;-56
2022/06/23 09:20:13;;;;;;;17.90;10.98;;;28.40;91.40;;;;;;5057466;28;20028;-56
2022/06/23 09:22:58;;;;;;;19.33;11.07;;;28.30;94.00;;;;;;5057635;28;20119;-56
2022/06/23 09:25:45;;;;;;;19.15;12.27;;;28.40;92.00;;;;;;5071479;28;20039;-56
2022/06/23 09:28:16;;;;;;;26.55;12.75;;;28.40;92.40;;;;;;5056584;28;20021;-56
2022/06/23 09:31:19;;;;;;;17.55;11.35;;;28.40;90.00;;;;;;5057415;28;20025;-56
2022/06/23 09:34:08;;;;;;;22.02;12.13;;;28.50;89.90;;;;;;5073611;28;20372;-56
2022/06/23 09:36:56;;;;;;;23.25;12.48;;;28.30;90.60;;;;;;5070392;28;20040;-56
2022/06/23 09:39:31;;;;;;;19.80;12.13;;;28.50;91.20;;;;;;5076940;28;20512;-55
2022/06/23 09:42:27;;;;;;;24.85;13.38;;;28.10;93.00;;;;;;5057252;28;20048;-56
2022/06/23 09:45:21;;;;;;;15.95;11.57;;;28.40;92.80;;;;;;5057241;28;20491;-56
2022/06/23 09:48:01;;;;;;;17.35;13.13;;;28.20;92.70;;;;;;5062378;28;20385;-56
2022/06/23 09:50:42;;;;;;;22.80;13.38;;;28.20;92.80;;;;;;5075410;28;20059;-56
2022/06/23 09:53:17;;;;;;;19.48;12.85;;;28.30;92.90;;;;;;5076167;28;20077;-55
2022/06/23 09:55:54;;;;;;;15.32;12.40;;;27.80;93.10;;;;;;5073521;28;20044;-56
2022/06/23 09:58:24;;;;;;;18.88;12.13;;;27.60;95.60;;;;;;5074610;28;20028;-55
2022/06/23 10:01:04;;;;;;;25.10;13.10;;;27.50;96.20;;;;;;5075635;28;20020;-55
2022/06/23 10:03:49;;;;;;;;;;;27.20;95.80;;;;;;5076284;28;20360;-55
2022/06/23 10:06:39;;;;;;;18.10;12.80;;;27.00;95.80;;;;;;5075530;28;20327;-55
2022/06/23 10:09:28;;;;;;;18.30;12.70;;;26.90;97.30;;;;;;5075784;28;20090;-55
2022/06/23 10:11:54;;;;;;;19.30;13.32;;;27.20;97.70;;;;;;5075190;28;20101;-55
2022/06/23 10:14:39;;;;;;;15.45;11.40;;;27.60;94.40;;;;;;5074754;28;20099;-55
2022/06/23 10:17:21;;;;;;;21.48;12.40;;;26.70;94.90;;;;;;5072711;28;20074;-55
2022/06/23 10:19:52;;;;;;;18.25;13.65;;;27.30;93.60;;;;;;5073672;28;20364;-55
2022/06/23 10:22:36;;;;;;;20.20;12.35;;;27.60;91.90;;;;;;5075009;28;20033;-55
2022/06/23 10:25:31;;;;;;;21.83;13.70;;;27.20;92.80;;;;;;5071716;28;20021;-55
2022/06/23 10:28:06;;;;;;;23.67;13.23;;;27.20;94.80;;;;;;5072013;28;20020;-55
2022/06/23 10:30:50;;;;;;;20.02;12.55;;;27.50;90.40;;;;;;5072255;28;20074;-55
2022/06/23 10:33:22;;;;;;;19.25;12.07;;;27.40;92.20;;;;;;5073161;28;20068;-55
2022/06/23 10:36:19;;;;;;;19.40;13.32;;;27.70;90.00;;;;;;5070308;28;20017;-55
2022/06/23 10:38:48;;;;;;;19.85;13.00;;;28.00;91.30;;;;;;5072759;28;20283;-55
2022/06/23 10:41:24;;;;;;;18.48;13.63;;;28.10;93.10;;;;;;5074841;28;20025;-55
2022/06/23 10:44:07;;;;;;;30.33;14.57;;;27.50;93.30;;;;;;5074619;28;20024;-55
2022/06/23 10:47:06;;;;;;;23.10;13.68;;;27.90;90.70;;;;;;5074253;28;20455;-55
2022/06/23 10:49:50;;;;;;;18.10;13.63;;;27.70;91.10;;;;;;5066751;28;20082;-55
2022/06/23 10:52:56;;;;;;;17.45;13.50;;;27.10;92.30;;;;;;5074475;28;20362;-55
2022/06/23 10:55:31;;;;;;;24.45;13.88;;;27.00;92.40;;;;;;5074241;28;20032;-55
2022/06/23 10:58:35;;;;;;;20.33;14.20;;;27.20;96.00;;;;;;5073907;28;20190;-55
2022/06/23 11:01:22;;;;;;;15.55;13.05;;;27.30;92.50;;;;;;5071135;28;20093;-55
2022/06/23 11:04:22;;;;;;;21.40;14.35;;;27.20;93.10;;;;;;5074610;28;20073;-55
2022/06/23 11:07:00;;;;;;;29.05;14.05;;;27.70;99.20;;;;;;5075466;28;20035;-55
2022/06/23 11:09:44;;;;;;;18.58;12.85;;;27.10;92.60;;;;;;5074601;28;20055;-55
2022/06/23 11:12:24;;;;;;;22.80;14.63;;;26.90;95.60;;;;;;5073107;28;20032;-55
2022/06/23 11:15:30;;;;;;;18.35;12.63;;;27.20;92.70;;;;;;5074628;28;20519;-55
2022/06/23 11:18:39;;;;;;;18.13;11.15;;;27.20;92.10;;;;;;5033453;28;20174;-55
2022/06/23 11:21:08;;;;;;;18.58;12.07;;;26.90;96.10;;;;;;5074117;28;20024;-55
2022/06/23 11:23:50;;;;;;;16.65;11.70;;;26.70;97.70;;;;;;5074751;28;20047;-55
2022/06/23 11:26:30;;;;;;;16.27;8.77;;;27.50;90.90;;;;;;5073089;28;20036;-55
2022/06/23 11:29:26;;;;;;;10.07;7.03;;;27.90;89.50;;;;;;5073525;28;20024;-55
2022/06/23 11:32:13;;;;;;;10.88;6.72;;;28.10;80.00;;;;;;5074480;28;20028;-55
2022/06/23 11:35:16;;;;;;;14.40;7.70;;;28.80;75.70;;;;;;5073896;28;20079;-56
2022/06/23 11:38:00;;;;;;;11.40;7.85;;;29.20;68.50;;;;;;5071300;28;20055;-55
2022/06/23 11:40:57;;;;;;;11.40;7.85;;;28.80;76.00;;;;;;5072076;28;20504;-55
2022/06/23 11:43:36;;;;;;;9.85;6.50;;;28.70;77.00;;;;;;5073991;28;20090;-55
2022/06/23 11:46:32;;;;;;;11.05;6.00;;;28.60;72.90;;;;;;5073427;28;20028;-55
2022/06/23 11:49:17;;;;;;;10.40;6.38;;;28.90;69.60;;;;;;5073118;28;20386;-55
2022/06/23 11:52:00;;;;;;;12.35;6.50;;;28.70;68.40;;;;;;5073840;28;20043;-55
2022/06/23 11:54:50;;;;;;;9.40;5.30;;;28.80;69.80;;;;;;5071538;28;20044;-55
2022/06/23 11:57:34;;;;;;;7.32;4.57;;;28.90;66.60;;;;;;5074072;28;20496;-55
2022/06/23 12:00:11;;;;;;;5.85;4.00;;;29.20;66.70;;;;;;5073887;28;20082;-55
2022/06/23 12:03:25;;;;;;;10.10;5.05;;;28.90;65.40;;;;;;5071283;28;20119;-55
2022/06/23 12:06:09;;;;;;;7.75;4.45;;;29.40;62.20;;;;;;4991290;28;20070;-55
2022/06/23 12:09:26;;;;;;;6.82;4.40;;;29.60;59.20;;;;;;4991250;28;20023;-55
2022/06/23 12:11:54;;;;;;;9.95;4.43;;;29.80;63.70;;;;;;4977122;28;20054;-56
2022/06/23 12:14:20;;;;;;;13.90;4.63;;;30.10;63.30;;;;;;4991204;28;20098;-55
2022/06/23 12:17:09;;;;;;;9.73;5.15;;;29.90;61.10;;;;;;4990790;28;20034;-55
2022/06/23 12:19:50;;;;;;;11.30;4.80;;;30.20;65.40;;;;;;4991375;28;20053;-55
2022/06/23 12:22:37;;;;;;;5.40;4.53;;;30.30;63.40;;;;;;4991146;28;20027;-55
2022/06/23 12:25:36;;;;;;;9.30;3.95;;;30.10;60.10;;;;;;4991342;28;20038;-55
2022/06/23 12:28:18;;;;;;;13.40;4.68;;;29.80;61.30;;;;;;4991371;28;20026;-55
2022/06/23 12:30:53;;;;;;;9.95;4.28;;;29.00;61.40;;;;;;4991400;28;20038;-55
2022/06/23 12:34:14;;;;;;;7.85;3.50;;;29.20;64.30;;;;;;4991759;28;20034;-55
2022/06/23 12:36:42;;;;;;;10.63;4.25;;;29.30;61.80;;;;;;5028606;28;20086;-55
2022/06/23 12:39:14;;;;;;;10.95;4.28;;;29.30;59.10;;;;;;5073007;28;20119;-55
2022/06/23 12:41:50;;;;;;;8.70;4.65;;;29.00;63.10;;;;;;5072861;28;20028;-55
2022/06/23 12:44:23;;;;;;;8.27;4.43;;;29.50;60.80;;;;;;5072902;28;20028;-55
2022/06/23 12:47:11;;;;;;;6.85;3.85;;;29.70;63.80;;;;;;5071905;28;20488;-55
2022/06/23 12:50:28;;;;;;;7.43;3.22;;;29.50;61.60;;;;;;5072974;28;20033;-55
2022/06/23 12:53:34;;;;;;;4.32;3.03;;;29.40;60.20;;;;;;4982562;28;20070;-55
2022/06/23 12:56:20;;;;;;;13.65;4.22;;;28.80;61.80;;;;;;5052864;28;20056;-55
2022/06/23 12:58:51;;;;;;;14.80;5.75;;;28.80;65.60;;;;;;5053391;28;20033;-55
2022/06/23 13:01:29;;;;;;;7.20;4.20;;;29.10;64.60;;;;;;5067764;28;20028;-55
2022/06/23 13:04:16;;;;;;;8.45;3.70;;;29.60;62.30;;;;;;5071586;28;20028;-55
2022/06/23 13:06:52;;;;;;;7.95;3.55;;;29.70;63.70;;;;;;5073833;28;20083;-55
2022/06/23 13:09:37;;;;;;;8.15;3.67;;;29.70;62.30;;;;;;5054485;28;20117;-55
2022/06/23 13:12:24;;;;;;;11.00;3.72;;;29.50;60.40;;;;;;5072453;28;20027;-55
2022/06/23 13:15:09;;;;;;;11.00;4.93;;;29.40;60.00;;;;;;5073076;28;20470;-55
2022/06/23 13:17:54;;;;;;;6.43;4.10;;;28.70;65.70;;;;;;5071797;28;20080;-55
2022/06/23 13:20:45;;;;;;;15.38;4.72;;;28.90;67.70;;;;;;5065323;28;20383;-55
2022/06/23 13:23:32;;;;;;;7.30;3.33;;;29.30;67.20;;;;;;5072485;28;20052;-55
2022/06/23 13:26:14;;;;;;;11.13;5.43;;;29.00;64.00;;;;;;5072140;28;20025;-55
2022/06/23 13:28:44;;;;;;;16.00;4.97;;;28.80;71.40;;;;;;5073284;28;20032;-55
2022/06/23 13:31:29;;;;;;;28.20;5.93;;;29.00;68.50;;;;;;5073053;28;20029;-55
2022/06/23 13:34:05;;;;;;;32.90;8.20;;;29.30;64.50;;;;;;5077184;28;20040;-54
2022/06/23 13:37:01;;;;;;;40.58;6.38;;;29.00;67.50;;;;;;5077154;28;20025;-55
2022/06/23 13:39:31;;;;;;;7.47;3.47;;;29.50;68.90;;;;;;5072080;28;20054;-55
2022/06/23 13:42:16;;;;;;;4.78;3.00;;;29.20;59.70;;;;;;5076410;28;20401;-55
2022/06/23 13:45:08;;;;;;;14.68;4.43;;;28.80;60.70;;;;;;5076576;28;20050;-55